createdAt,value
2017-03-01T00:00:34.049Z,0
2017-03-01T00:01:43.256Z,0
2017-03-01T00:02:52.819Z,0
2017-03-01T00:04:02.802Z,0
2017-03-01T00:05:12.244Z,0
2017-03-01T00:06:22.242Z,0
2017-03-01T00:07:31.852Z,0
2017-03-01T00:08:41.839Z,0
2017-03-01T00:09:51.846Z,0
2017-03-01T00:11:01.434Z,0
2017-03-01T00:12:10.659Z,0
2017-03-01T00:13:20.637Z,0
2017-03-01T00:14:30.540Z,0
2017-03-01T00:15:40.890Z,0
2017-03-01T00:16:51.270Z,0
2017-03-01T00:18:01.258Z,0
2017-03-01T00:19:11.651Z,0
2017-03-01T00:20:21.243Z,0
2017-03-01T00:21:30.820Z,0
2017-03-01T00:22:41.195Z,0
2017-03-01T00:23:50.777Z,0
2017-03-01T00:25:00.365Z,0
2017-03-01T00:26:10.745Z,0
2017-03-01T00:27:19.942Z,0
2017-03-01T00:28:29.169Z,0
2017-03-01T00:29:39.152Z,0
2017-03-01T00:30:48.748Z,0
2017-03-01T00:31:58.722Z,0
2017-03-01T00:33:08.698Z,0
2017-03-01T00:34:18.282Z,0
2017-03-01T00:35:27.487Z,0
2017-03-01T00:36:37.490Z,0
2017-03-01T00:37:48.269Z,0
2017-03-01T00:38:57.879Z,0
2017-03-01T00:40:07.846Z,0
2017-03-01T00:41:17.045Z,0
2017-03-01T00:42:26.727Z,0
2017-03-01T00:43:36.721Z,0
2017-03-01T00:44:46.317Z,0
2017-03-01T00:45:55.925Z,0
2017-03-01T00:47:05.899Z,0
2017-03-01T00:48:15.519Z,0
2017-03-01T00:49:25.446Z,0
2017-03-01T00:50:34.659Z,0
2017-03-01T00:51:44.589Z,0
2017-03-01T00:52:54.191Z,0
2017-03-01T00:54:04.179Z,0
2017-03-01T00:55:14.547Z,0
2017-03-01T00:56:24.147Z,0
2017-03-01T00:57:33.349Z,0
2017-03-01T00:58:42.543Z,0
2017-03-01T00:59:51.751Z,0
2017-03-01T01:01:00.979Z,0
2017-03-01T01:02:11.352Z,0
2017-03-01T01:03:20.929Z,0
2017-03-01T01:04:30.528Z,0
2017-03-01T01:05:40.922Z,0
2017-03-01T01:06:50.478Z,0
2017-03-01T01:08:00.099Z,0
2017-03-01T01:09:09.664Z,0
2017-03-01T01:10:19.263Z,0
2017-03-01T01:11:29.244Z,0
2017-03-01T01:12:38.061Z,0
2017-03-01T01:13:48.423Z,0
2017-03-01T01:14:57.568Z,0
2017-03-01T01:16:07.150Z,0
2017-03-01T01:17:16.308Z,0
2017-03-01T01:18:25.890Z,0
2017-03-01T01:19:35.110Z,0
2017-03-01T01:20:44.314Z,0
2017-03-01T01:21:53.918Z,0
2017-03-01T01:23:03.109Z,0
2017-03-01T01:24:12.308Z,0
2017-03-01T01:25:21.843Z,0
2017-03-01T01:26:31.047Z,0
2017-03-01T01:27:40.654Z,0
2017-03-01T01:28:50.655Z,0
2017-03-01T01:29:59.886Z,0
2017-03-01T01:31:10.244Z,0
2017-03-01T01:32:20.228Z,0
2017-03-01T01:33:29.833Z,0
2017-03-01T01:34:39.070Z,0
2017-03-01T01:35:48.674Z,0
2017-03-01T01:36:58.273Z,0
2017-03-01T01:38:07.899Z,0
2017-03-01T01:39:17.526Z,0
2017-03-01T01:40:27.903Z,0
2017-03-01T01:41:37.102Z,0
2017-03-01T01:42:45.896Z,0
2017-03-01T01:43:55.443Z,0
2017-03-01T01:45:05.350Z,0
2017-03-01T01:46:14.937Z,0
2017-03-01T01:47:24.154Z,0
2017-03-01T01:48:34.115Z,0
2017-03-01T01:49:43.314Z,0
2017-03-01T01:50:53.243Z,0
2017-03-01T01:52:02.454Z,0
2017-03-01T01:53:12.451Z,0
2017-03-01T01:54:22.814Z,0
2017-03-01T01:55:32.737Z,0
2017-03-01T01:56:42.271Z,0
2017-03-01T01:57:51.877Z,0
2017-03-01T01:59:01.873Z,0
2017-03-01T02:00:11.469Z,0
2017-03-01T02:01:22.190Z,0
2017-03-01T02:02:31.715Z,0
2017-03-01T02:03:41.304Z,0
2017-03-01T02:04:50.832Z,0
2017-03-01T02:06:00.803Z,0
2017-03-01T02:07:10.011Z,0
2017-03-01T02:08:20.030Z,0
2017-03-01T02:09:29.567Z,0
2017-03-01T02:10:38.759Z,0
2017-03-01T02:11:49.527Z,0
2017-03-01T02:12:59.893Z,0
2017-03-01T02:14:09.882Z,0
2017-03-01T02:15:19.854Z,0
2017-03-01T02:16:29.776Z,0
2017-03-01T02:17:39.359Z,0
2017-03-01T02:18:48.954Z,0
2017-03-01T02:19:58.559Z,0
2017-03-01T02:21:08.164Z,0
2017-03-01T02:22:17.760Z,0
2017-03-01T02:23:26.937Z,0
2017-03-01T02:24:36.938Z,0
2017-03-01T02:25:47.294Z,0
2017-03-01T02:26:57.300Z,0
2017-03-01T02:28:06.869Z,0
2017-03-01T02:29:16.016Z,0
2017-03-01T02:30:25.974Z,0
2017-03-01T02:31:35.514Z,0
2017-03-01T02:32:45.484Z,0
2017-03-01T02:33:55.081Z,0
2017-03-01T02:35:04.270Z,0
2017-03-01T02:36:14.250Z,0
2017-03-01T02:37:23.062Z,0
2017-03-01T02:38:32.659Z,0
2017-03-01T02:39:42.277Z,0
2017-03-01T02:40:52.646Z,0
2017-03-01T02:42:01.868Z,0
2017-03-01T02:43:11.848Z,0
2017-03-01T02:44:21.050Z,0
2017-03-01T02:45:31.023Z,0
2017-03-01T02:46:40.591Z,0
2017-03-01T02:47:49.344Z,0
2017-03-01T02:48:58.918Z,0
2017-03-01T02:50:08.107Z,0
2017-03-01T02:51:18.498Z,0
2017-03-01T02:52:27.694Z,0
2017-03-01T02:53:36.902Z,0
2017-03-01T02:54:46.879Z,0
2017-03-01T02:55:56.866Z,0
2017-03-01T02:57:06.867Z,0
2017-03-01T02:58:16.382Z,0
2017-03-01T02:59:26.697Z,0
2017-03-01T03:00:35.872Z,0
2017-03-01T03:01:46.650Z,0
2017-03-01T03:02:56.574Z,0
2017-03-01T03:04:06.942Z,0
2017-03-01T03:05:16.501Z,0
2017-03-01T03:06:26.906Z,0
2017-03-01T03:07:36.889Z,0
2017-03-01T03:08:46.477Z,0
2017-03-01T03:09:56.472Z,0
2017-03-01T03:11:06.085Z,0
2017-03-01T03:12:16.465Z,0
2017-03-01T03:13:26.047Z,0
2017-03-01T03:14:35.628Z,0
2017-03-01T03:15:44.814Z,0
2017-03-01T03:16:54.400Z,0
2017-03-01T03:18:03.594Z,0
2017-03-01T03:19:12.424Z,0
2017-03-01T03:20:22.012Z,0
2017-03-01T03:21:31.994Z,0
2017-03-01T03:22:41.142Z,0
2017-03-01T03:23:50.726Z,0
2017-03-01T03:25:00.711Z,0
2017-03-01T03:26:09.953Z,0
2017-03-01T03:27:19.864Z,0
2017-03-01T03:28:29.480Z,0
2017-03-01T03:29:39.091Z,0
2017-03-01T03:30:49.077Z,0
2017-03-01T03:31:58.272Z,0
2017-03-01T03:33:07.499Z,0
2017-03-01T03:34:17.482Z,0
2017-03-01T03:35:26.361Z,0
2017-03-01T03:36:35.960Z,0
2017-03-01T03:37:45.154Z,0
2017-03-01T03:38:54.353Z,0
2017-03-01T03:40:03.943Z,0
2017-03-01T03:41:13.537Z,0
2017-03-01T03:42:23.141Z,0
2017-03-01T03:43:32.781Z,0
2017-03-01T03:46:51.044Z,0
2017-03-01T03:48:00.218Z,0
2017-03-01T03:49:09.723Z,0
2017-03-01T03:50:19.338Z,0
2017-03-01T03:51:28.552Z,0
2017-03-01T03:52:37.744Z,0
2017-03-01T03:53:46.943Z,0
2017-03-01T03:54:56.512Z,0
2017-03-01T03:56:06.083Z,0
2017-03-01T03:57:15.656Z,0
2017-03-01T03:58:24.869Z,0
2017-03-01T03:59:34.844Z,0
2017-03-01T04:00:44.024Z,0
2017-03-01T04:01:54.401Z,0
2017-03-01T04:03:03.569Z,0
2017-03-01T04:04:12.681Z,0
2017-03-01T04:05:21.470Z,0
2017-03-01T04:06:31.052Z,0
2017-03-01T04:07:40.611Z,0
2017-03-01T04:08:49.794Z,0
2017-03-01T04:09:59.354Z,0
2017-03-01T04:11:09.256Z,0
2017-03-01T04:12:19.596Z,0
2017-03-01T04:13:29.761Z,0
2017-03-01T04:14:39.675Z,0
2017-03-01T04:15:49.254Z,0
2017-03-01T04:16:58.809Z,0
2017-03-01T04:18:08.791Z,0
2017-03-01T04:19:19.126Z,0
2017-03-01T04:20:27.938Z,0
2017-03-01T04:21:37.846Z,0
2017-03-01T04:22:47.462Z,0
2017-03-01T04:23:57.407Z,0
2017-03-01T04:25:07.402Z,0
2017-03-01T04:26:16.964Z,0
2017-03-01T04:27:26.134Z,0
2017-03-01T04:28:35.306Z,0
2017-03-01T04:29:44.539Z,0
2017-03-01T04:30:54.899Z,0
2017-03-01T04:32:04.069Z,0
2017-03-01T04:33:13.401Z,0
2017-03-01T04:34:22.230Z,0
2017-03-01T04:35:32.139Z,0
2017-03-01T04:36:42.128Z,0
2017-03-01T04:37:51.298Z,0
2017-03-01T04:39:00.875Z,0
2017-03-01T04:40:10.068Z,0
2017-03-01T04:41:20.009Z,0
2017-03-01T04:42:29.983Z,0
2017-03-01T04:43:39.106Z,0
2017-03-01T04:44:49.424Z,0
2017-03-01T04:45:58.603Z,0
2017-03-01T04:47:08.543Z,0
2017-03-01T04:48:17.533Z,0
2017-03-01T04:49:26.677Z,0
2017-03-01T04:50:36.227Z,0
2017-03-01T04:51:45.733Z,0
2017-03-01T04:52:55.284Z,0
2017-03-01T04:54:04.462Z,0
2017-03-01T04:55:14.825Z,0
2017-03-01T04:56:24.771Z,0
2017-03-01T04:57:33.949Z,0
2017-03-01T04:58:43.910Z,0
2017-03-01T04:59:54.248Z,0
2017-03-01T05:01:04.217Z,0
2017-03-01T05:02:13.812Z,0
2017-03-01T05:03:23.768Z,0
2017-03-01T05:04:33.352Z,0
2017-03-01T05:05:43.349Z,0
2017-03-01T05:06:52.554Z,0
2017-03-01T05:08:02.066Z,0
2017-03-01T05:09:12.779Z,0
2017-03-01T05:10:21.579Z,0
2017-03-01T05:11:31.177Z,0
2017-03-01T05:12:40.758Z,0
2017-03-01T05:13:49.937Z,0
2017-03-01T05:14:59.893Z,0
2017-03-01T05:16:09.083Z,0
2017-03-01T05:17:18.668Z,0
2017-03-01T05:18:28.194Z,0
2017-03-01T05:19:37.765Z,0
2017-03-01T05:20:47.738Z,0
2017-03-01T05:21:57.728Z,0
2017-03-01T05:23:07.302Z,0
2017-03-01T05:24:16.826Z,0
2017-03-01T05:25:26.391Z,0
2017-03-01T05:26:36.290Z,0
2017-03-01T05:27:46.175Z,0
2017-03-01T05:28:56.114Z,0
2017-03-01T05:30:05.692Z,0
2017-03-01T05:31:14.901Z,0
2017-03-01T05:32:24.510Z,0
2017-03-01T05:33:33.646Z,0
2017-03-01T05:34:43.200Z,0
2017-03-01T05:35:52.777Z,0
2017-03-01T05:37:03.521Z,0
2017-03-01T05:38:13.869Z,0
2017-03-01T05:39:23.442Z,0
2017-03-01T05:40:33.433Z,0
2017-03-01T05:41:42.645Z,0
2017-03-01T05:42:52.603Z,0
2017-03-01T05:44:01.725Z,0
2017-03-01T05:45:10.851Z,0
2017-03-01T05:46:20.795Z,0
2017-03-01T05:47:31.162Z,0
2017-03-01T05:48:41.106Z,0
2017-03-01T05:49:50.293Z,0
2017-03-01T05:50:59.867Z,0
2017-03-01T05:52:10.599Z,0
2017-03-01T05:53:20.152Z,0
2017-03-01T05:54:28.961Z,0
2017-03-01T05:55:38.159Z,0
2017-03-01T05:56:48.440Z,0
2017-03-01T05:57:58.006Z,0
2017-03-01T05:59:07.968Z,0
2017-03-01T06:00:18.547Z,0
2017-03-01T06:01:27.918Z,0
2017-03-01T06:02:37.127Z,0
2017-03-01T06:03:47.490Z,0
2017-03-01T06:04:57.071Z,0
2017-03-01T06:06:07.049Z,4
2017-03-01T06:07:16.621Z,4
2017-03-01T06:08:25.798Z,4
2017-03-01T06:09:34.976Z,0
2017-03-01T06:10:44.565Z,0
2017-03-01T06:11:54.124Z,4
2017-03-01T06:13:03.629Z,4
2017-03-01T06:14:13.192Z,4
2017-03-01T06:15:22.775Z,8
2017-03-01T06:16:32.355Z,8
2017-03-01T06:17:41.545Z,4
2017-03-01T06:18:51.158Z,8
2017-03-01T06:20:01.526Z,8
2017-03-01T06:21:11.872Z,8
2017-03-01T06:22:21.383Z,48
2017-03-01T06:23:31.686Z,48
2017-03-01T06:24:41.970Z,48
2017-03-01T06:25:52.185Z,44
2017-03-01T06:27:01.347Z,52
2017-03-01T06:28:11.287Z,12
2017-03-01T06:29:20.497Z,16
2017-03-01T06:30:30.078Z,16
2017-03-01T06:31:39.268Z,16
2017-03-01T06:32:48.459Z,24
2017-03-01T06:33:58.438Z,24
2017-03-01T06:35:08.392Z,20
2017-03-01T06:36:17.967Z,20
2017-03-01T06:37:27.942Z,28
2017-03-01T06:38:37.515Z,28
2017-03-01T06:39:46.725Z,32
2017-03-01T06:40:56.297Z,44
2017-03-01T06:42:06.206Z,40
2017-03-01T06:43:16.141Z,56
2017-03-01T06:44:25.331Z,64
2017-03-01T06:45:34.912Z,104
2017-03-01T06:46:43.690Z,136
2017-03-01T06:47:53.295Z,204
2017-03-01T06:49:02.476Z,176
2017-03-01T06:50:12.823Z,148
2017-03-01T06:51:22.731Z,120
2017-03-01T06:52:31.453Z,112
2017-03-01T06:53:41.044Z,84
2017-03-01T06:54:50.224Z,96
2017-03-01T06:55:59.814Z,92
2017-03-01T06:57:09.752Z,96
2017-03-01T06:58:19.249Z,88
2017-03-01T06:59:29.194Z,116
2017-03-01T07:00:38.746Z,112
2017-03-01T07:01:47.908Z,104
2017-03-01T07:02:57.865Z,96
2017-03-01T07:04:07.444Z,108
2017-03-01T07:05:17.402Z,100
2017-03-01T07:06:26.151Z,96
2017-03-01T07:07:35.650Z,84
2017-03-01T07:08:44.821Z,76
2017-03-01T07:09:54.738Z,80
2017-03-01T07:11:04.652Z,100
2017-03-01T07:12:13.382Z,92
2017-03-01T07:13:22.158Z,96
2017-03-01T07:14:32.705Z,80
2017-03-01T07:15:41.951Z,88
2017-03-01T07:16:50.754Z,76
2017-03-01T07:18:00.720Z,68
2017-03-01T07:19:10.310Z,72
2017-03-01T07:20:19.513Z,80
2017-03-01T07:21:29.135Z,72
2017-03-01T07:22:38.326Z,56
2017-03-01T07:23:47.904Z,40
2017-03-01T07:24:57.359Z,56
2017-03-01T07:26:06.913Z,84
2017-03-01T07:27:16.819Z,140
2017-03-01T07:28:26.394Z,168
2017-03-01T07:29:36.358Z,104
2017-03-01T07:30:45.953Z,72
2017-03-01T07:31:56.327Z,56
2017-03-01T07:33:07.083Z,44
2017-03-01T07:34:16.661Z,56
2017-03-01T07:35:27.034Z,68
2017-03-01T07:36:36.594Z,80
2017-03-01T07:37:46.579Z,92
2017-03-01T07:38:55.789Z,104
2017-03-01T07:40:06.525Z,108
2017-03-01T07:41:16.107Z,144
2017-03-01T07:42:26.469Z,148
2017-03-01T07:43:35.647Z,196
2017-03-01T07:44:44.851Z,176
2017-03-01T07:45:54.420Z,160
2017-03-01T07:47:04.795Z,156
2017-03-01T07:48:14.755Z,148
2017-03-01T07:49:25.438Z,140
2017-03-01T07:50:34.930Z,136
2017-03-01T07:51:44.878Z,156
2017-03-01T07:52:54.459Z,124
2017-03-01T07:54:04.446Z,132
2017-03-01T07:55:14.024Z,152
2017-03-01T07:56:23.530Z,228
2017-03-01T07:57:33.485Z,300
2017-03-01T07:58:43.460Z,312
2017-03-01T07:59:52.641Z,320
2017-03-01T08:01:01.388Z,328
2017-03-01T08:02:10.571Z,480
2017-03-01T08:03:20.934Z,560
2017-03-01T08:04:30.889Z,528
2017-03-01T08:05:40.095Z,436
2017-03-01T08:06:50.454Z,420
2017-03-01T08:08:01.033Z,388
2017-03-01T08:09:10.631Z,504
2017-03-01T08:10:20.652Z,476
2017-03-01T08:11:29.414Z,480
2017-03-01T08:12:38.966Z,448
2017-03-01T08:13:48.488Z,420
2017-03-01T08:14:57.671Z,552
2017-03-01T08:16:07.239Z,636
2017-03-01T08:17:16.430Z,588
2017-03-01T08:18:26.636Z,612
2017-03-01T08:19:36.210Z,696
2017-03-01T08:20:46.201Z,1188
2017-03-01T08:21:55.376Z,1044
2017-03-01T08:23:04.594Z,792
2017-03-01T08:24:14.564Z,520
2017-03-01T08:25:23.361Z,472
2017-03-01T08:26:33.699Z,432
2017-03-01T08:27:44.028Z,480
2017-03-01T08:28:53.538Z,608
2017-03-01T08:30:02.270Z,508
2017-03-01T08:31:12.261Z,384
2017-03-01T08:32:21.010Z,288
2017-03-01T08:33:30.960Z,512
2017-03-01T08:34:40.127Z,604
2017-03-01T08:35:49.286Z,576
2017-03-01T08:36:59.221Z,856
2017-03-01T08:38:09.188Z,700
2017-03-01T08:39:18.772Z,1120
2017-03-01T08:40:29.127Z,1448
2017-03-01T08:41:38.303Z,1244
2017-03-01T08:42:47.872Z,828
2017-03-01T08:43:57.826Z,756
2017-03-01T08:45:07.800Z,1008
2017-03-01T08:46:18.164Z,724
2017-03-01T08:47:28.128Z,548
2017-03-01T08:48:38.101Z,660
2017-03-01T08:49:47.301Z,488
2017-03-01T08:50:57.266Z,780
2017-03-01T08:52:07.549Z,728
2017-03-01T08:53:17.099Z,560
2017-03-01T08:54:26.629Z,936
2017-03-01T08:55:36.207Z,920
2017-03-01T08:56:45.419Z,828
2017-03-01T08:57:55.004Z,856
2017-03-01T08:59:04.988Z,940
2017-03-01T09:00:14.169Z,660
2017-03-01T09:01:23.738Z,524
2017-03-01T09:04:26.576Z,516
2017-03-01T09:05:36.947Z,712
2017-03-01T09:06:46.543Z,812
2017-03-01T09:07:56.959Z,616
2017-03-01T09:09:06.104Z,452
2017-03-01T09:10:15.698Z,464
2017-03-01T09:11:25.294Z,536
2017-03-01T09:12:34.906Z,516
2017-03-01T09:13:44.524Z,508
2017-03-01T09:14:54.532Z,392
2017-03-01T09:16:04.077Z,632
2017-03-01T09:17:14.157Z,1040
2017-03-01T09:18:24.156Z,1200
2017-03-01T09:19:34.553Z,1292
2017-03-01T09:20:44.138Z,1328
2017-03-01T09:21:53.321Z,1616
2017-03-01T09:23:02.871Z,2048
2017-03-01T09:24:13.237Z,988
2017-03-01T09:25:22.469Z,988
2017-03-01T09:26:31.629Z,1000
2017-03-01T09:27:40.368Z,1904
2017-03-01T09:28:50.333Z,1764
2017-03-01T09:29:59.538Z,2772
2017-03-01T09:31:09.153Z,4452
2017-03-01T09:32:18.855Z,1812
2017-03-01T09:33:29.159Z,3448
2017-03-01T09:34:38.910Z,3508
2017-03-01T09:35:48.873Z,4032
2017-03-01T09:36:58.074Z,4412
2017-03-01T09:38:08.451Z,1116
2017-03-01T09:39:18.459Z,1768
2017-03-01T09:40:27.224Z,3452
2017-03-01T09:41:36.406Z,2676
2017-03-01T09:42:46.801Z,1792
2017-03-01T09:43:56.390Z,2872
2017-03-01T09:45:06.403Z,4468
2017-03-01T09:46:15.604Z,2388
2017-03-01T09:47:24.831Z,1964
2017-03-01T09:48:34.763Z,2560
2017-03-01T09:49:43.948Z,2912
2017-03-01T09:50:54.654Z,1972
2017-03-01T09:52:04.254Z,1760
2017-03-01T09:53:14.173Z,2716
2017-03-01T09:54:23.762Z,1668
2017-03-01T09:55:32.527Z,1188
2017-03-01T09:56:42.110Z,1880
2017-03-01T09:57:50.954Z,1164
2017-03-01T09:59:00.873Z,1016
2017-03-01T10:00:10.852Z,1772
2017-03-01T10:01:20.078Z,2632
2017-03-01T10:02:30.067Z,1820
2017-03-01T10:03:39.852Z,2296
2017-03-01T10:04:49.442Z,3228
2017-03-01T10:05:59.673Z,1452
2017-03-01T10:07:09.212Z,1460
2017-03-01T10:08:18.419Z,1616
2017-03-01T10:09:28.018Z,2400
2017-03-01T10:10:37.586Z,1536
2017-03-01T10:11:47.495Z,3264
2017-03-01T10:12:56.673Z,1252
2017-03-01T10:14:06.253Z,2324
2017-03-01T10:15:15.456Z,1340
2017-03-01T10:16:24.279Z,2140
2017-03-01T10:17:33.327Z,1316
2017-03-01T10:18:43.306Z,1484
2017-03-01T10:19:54.068Z,1504
2017-03-01T10:21:03.649Z,1384
2017-03-01T10:22:13.255Z,1648
2017-03-01T10:23:22.449Z,2276
2017-03-01T10:24:31.665Z,1992
2017-03-01T10:25:41.678Z,2720
2017-03-01T10:26:51.649Z,3896
2017-03-01T10:28:01.198Z,1608
2017-03-01T10:29:10.793Z,936
2017-03-01T10:30:19.645Z,912
2017-03-01T10:31:29.186Z,764
2017-03-01T10:32:38.762Z,656
2017-03-01T10:33:47.944Z,676
2017-03-01T10:34:57.155Z,608
2017-03-01T10:36:06.762Z,768
2017-03-01T10:37:17.159Z,1220
2017-03-01T10:38:26.789Z,1624
2017-03-01T10:39:36.434Z,2912
2017-03-01T10:40:46.439Z,2488
2017-03-01T10:41:56.404Z,4720
2017-03-01T10:43:06.001Z,2144
2017-03-01T10:44:15.608Z,1628
2017-03-01T10:45:25.605Z,1176
2017-03-01T10:46:35.197Z,2008
2017-03-01T10:47:44.739Z,1132
2017-03-01T10:48:54.701Z,1100
2017-03-01T10:50:04.256Z,1556
2017-03-01T10:51:13.853Z,1160
2017-03-01T10:52:22.655Z,956
2017-03-01T10:53:32.585Z,764
2017-03-01T10:54:42.501Z,756
2017-03-01T10:55:51.692Z,908
2017-03-01T10:57:01.673Z,1592
2017-03-01T10:58:11.262Z,1264
2017-03-01T10:59:20.894Z,1200
2017-03-01T11:00:30.146Z,872
2017-03-01T11:01:40.439Z,1016
2017-03-01T11:02:50.034Z,876
2017-03-01T11:03:59.244Z,1256
2017-03-01T11:05:08.471Z,1280
2017-03-01T11:06:17.736Z,996
2017-03-01T11:07:27.713Z,600
2017-03-01T11:08:37.314Z,460
2017-03-01T11:09:47.303Z,360
2017-03-01T11:10:56.517Z,396
2017-03-01T11:12:06.513Z,396
2017-03-01T11:13:15.341Z,384
2017-03-01T11:14:25.717Z,320
2017-03-01T11:15:35.281Z,204
2017-03-01T11:16:44.871Z,308
2017-03-01T11:17:54.866Z,340
2017-03-01T11:19:04.433Z,332
2017-03-01T11:20:13.634Z,308
2017-03-01T11:21:23.618Z,312
2017-03-01T11:22:33.246Z,288
2017-03-01T11:23:43.199Z,304
2017-03-01T11:24:52.772Z,348
2017-03-01T11:26:02.377Z,268
2017-03-01T11:27:12.762Z,332
2017-03-01T11:28:22.365Z,356
2017-03-01T11:29:32.344Z,356
2017-03-01T11:30:41.557Z,352
2017-03-01T11:31:51.153Z,436
2017-03-01T11:33:00.354Z,436
2017-03-01T11:34:09.949Z,428
2017-03-01T11:35:19.538Z,392
2017-03-01T11:36:29.918Z,388
2017-03-01T11:37:39.517Z,392
2017-03-01T11:38:49.464Z,440
2017-03-01T11:39:58.654Z,472
2017-03-01T11:41:08.598Z,692
2017-03-01T11:42:18.174Z,1196
2017-03-01T11:43:27.772Z,1108
2017-03-01T11:44:37.349Z,1176
2017-03-01T11:45:46.908Z,1980
2017-03-01T11:46:57.285Z,2364
2017-03-01T11:48:06.893Z,1524
2017-03-01T11:49:16.872Z,1116
2017-03-01T11:50:27.255Z,960
2017-03-01T11:51:37.242Z,824
2017-03-01T11:52:47.247Z,992
2017-03-01T11:53:56.460Z,960
2017-03-01T11:55:06.074Z,976
2017-03-01T11:56:15.586Z,1192
2017-03-01T11:57:25.189Z,968
2017-03-01T11:58:34.003Z,1072
2017-03-01T11:59:43.962Z,1036
2017-03-01T12:00:53.144Z,804
2017-03-01T12:02:02.339Z,900
2017-03-01T12:03:12.579Z,824
2017-03-01T12:04:21.807Z,632
2017-03-01T12:05:31.423Z,864
2017-03-01T12:06:40.667Z,844
2017-03-01T12:07:49.485Z,660
2017-03-01T12:08:58.705Z,624
2017-03-01T12:10:08.342Z,660
2017-03-01T12:11:17.158Z,904
2017-03-01T12:12:26.739Z,752
2017-03-01T12:13:35.906Z,692
2017-03-01T12:14:45.489Z,832
2017-03-01T12:15:55.455Z,788
2017-03-01T12:17:04.202Z,904
2017-03-01T12:18:13.421Z,684
2017-03-01T12:19:22.981Z,820
2017-03-01T12:20:32.971Z,948
2017-03-01T12:21:42.895Z,808
2017-03-01T12:22:52.095Z,1096
2017-03-01T12:24:01.699Z,900
2017-03-01T12:25:11.691Z,972
2017-03-01T12:26:20.520Z,1360
2017-03-01T12:27:30.906Z,1376
2017-03-01T12:28:40.448Z,2264
2017-03-01T12:29:49.649Z,1492
2017-03-01T12:30:58.867Z,1484
2017-03-01T12:32:08.409Z,1196
2017-03-01T12:33:18.691Z,1412
2017-03-01T12:34:27.483Z,1112
2017-03-01T12:35:36.676Z,992
2017-03-01T12:36:45.479Z,736
2017-03-01T12:37:54.862Z,560
2017-03-01T12:39:04.453Z,608
2017-03-01T12:40:14.424Z,676
2017-03-01T12:41:24.791Z,600
2017-03-01T12:42:34.776Z,556
2017-03-01T12:43:44.389Z,612
2017-03-01T12:44:53.977Z,680
2017-03-01T12:46:03.573Z,832
2017-03-01T12:47:13.562Z,856
2017-03-01T12:48:23.509Z,780
2017-03-01T12:49:32.651Z,820
2017-03-01T12:50:41.856Z,836
2017-03-01T12:51:51.460Z,764
2017-03-01T12:53:01.386Z,588
2017-03-01T12:54:10.149Z,572
2017-03-01T12:55:20.114Z,692
2017-03-01T12:56:29.693Z,828
2017-03-01T12:57:39.676Z,900
2017-03-01T12:58:49.287Z,752
2017-03-01T12:59:58.918Z,496
2017-03-01T13:01:09.098Z,536
2017-03-01T13:02:18.278Z,668
2017-03-01T13:03:27.481Z,604
2017-03-01T13:04:37.014Z,668
2017-03-01T13:05:46.611Z,420
2017-03-01T13:06:56.171Z,440
2017-03-01T13:08:05.771Z,336
2017-03-01T13:09:14.910Z,280
2017-03-01T13:10:24.090Z,268
2017-03-01T13:11:34.086Z,200
2017-03-01T13:12:42.897Z,184
2017-03-01T13:13:52.888Z,220
2017-03-01T13:15:02.862Z,220
2017-03-01T13:16:12.081Z,260
2017-03-01T13:17:21.449Z,272
2017-03-01T13:18:31.842Z,264
2017-03-01T13:19:41.059Z,280
2017-03-01T13:20:50.689Z,304
2017-03-01T13:22:00.303Z,372
2017-03-01T13:23:10.626Z,408
2017-03-01T13:24:20.158Z,424
2017-03-01T13:25:30.064Z,408
2017-03-01T13:26:39.262Z,308
2017-03-01T13:27:48.126Z,304
2017-03-01T13:28:57.702Z,364
2017-03-01T13:30:06.503Z,400
2017-03-01T13:31:15.308Z,328
2017-03-01T13:32:25.249Z,348
2017-03-01T13:33:34.451Z,332
2017-03-01T13:34:43.675Z,392
2017-03-01T13:35:53.987Z,436
2017-03-01T13:37:03.560Z,472
2017-03-01T13:38:13.186Z,512
2017-03-01T13:39:22.804Z,472
2017-03-01T13:40:32.390Z,412
2017-03-01T13:41:41.556Z,288
2017-03-01T13:42:50.744Z,244
2017-03-01T13:43:59.946Z,256
2017-03-01T13:45:09.500Z,344
2017-03-01T13:46:18.910Z,344
2017-03-01T13:47:28.154Z,272
2017-03-01T13:48:36.990Z,232
2017-03-01T13:49:46.217Z,192
2017-03-01T13:50:56.598Z,220
2017-03-01T13:52:05.850Z,224
2017-03-01T13:53:14.688Z,200
2017-03-01T13:54:24.263Z,188
2017-03-01T13:55:33.426Z,156
2017-03-01T13:56:42.640Z,124
2017-03-01T13:57:52.213Z,84
2017-03-01T13:59:01.806Z,108
2017-03-01T14:00:11.398Z,136
2017-03-01T14:01:21.601Z,144
2017-03-01T14:02:31.189Z,120
2017-03-01T14:03:40.004Z,104
2017-03-01T14:04:49.231Z,96
2017-03-01T14:05:58.846Z,88
2017-03-01T14:07:08.051Z,96
2017-03-01T14:08:17.857Z,100
2017-03-01T14:09:27.411Z,92
2017-03-01T14:10:37.386Z,92
2017-03-01T14:11:47.359Z,108
2017-03-01T14:12:56.993Z,112
2017-03-01T14:14:06.222Z,124
2017-03-01T14:15:16.204Z,140
2017-03-01T14:16:25.418Z,160
2017-03-01T14:17:35.402Z,192
2017-03-01T14:18:44.987Z,244
2017-03-01T14:19:54.591Z,316
2017-03-01T14:21:04.228Z,328
2017-03-01T14:22:13.429Z,428
2017-03-01T14:23:23.747Z,432
2017-03-01T14:24:32.563Z,464
2017-03-01T14:25:41.405Z,556
2017-03-01T14:26:51.020Z,688
2017-03-01T14:28:01.208Z,836
2017-03-01T14:29:11.200Z,704
2017-03-01T14:30:20.431Z,536
2017-03-01T14:31:29.254Z,308
2017-03-01T14:32:38.858Z,184
2017-03-01T14:33:48.829Z,128
2017-03-01T14:34:58.787Z,128
2017-03-01T14:36:08.324Z,136
2017-03-01T14:37:17.511Z,136
2017-03-01T14:38:27.071Z,136
2017-03-01T14:39:36.663Z,192
2017-03-01T14:40:46.656Z,252
2017-03-01T14:41:56.573Z,248
2017-03-01T14:43:06.566Z,232
2017-03-01T14:44:16.527Z,192
2017-03-01T14:45:26.511Z,180
2017-03-01T14:46:36.115Z,204
2017-03-01T14:47:45.330Z,196
2017-03-01T14:48:54.939Z,372
2017-03-01T14:50:04.927Z,480
2017-03-01T14:51:14.131Z,664
2017-03-01T14:52:24.026Z,928
2017-03-01T14:53:33.224Z,1088
2017-03-01T14:54:42.055Z,1076
2017-03-01T14:55:51.665Z,1044
2017-03-01T14:57:01.664Z,1012
2017-03-01T14:58:11.259Z,996
2017-03-01T14:59:20.099Z,968
2017-03-01T15:00:29.645Z,940
2017-03-01T15:01:38.829Z,980
2017-03-01T15:02:48.813Z,1052
2017-03-01T15:03:58.827Z,1048
2017-03-01T15:05:09.202Z,1004
2017-03-01T15:06:18.351Z,1024
2017-03-01T15:07:27.925Z,956
2017-03-01T15:08:37.101Z,880
2017-03-01T15:09:46.645Z,872
2017-03-01T15:10:55.384Z,800
2017-03-01T15:12:05.003Z,788
2017-03-01T15:13:15.005Z,784
2017-03-01T15:14:24.565Z,760
2017-03-01T15:15:34.550Z,736
2017-03-01T15:16:43.756Z,768
2017-03-01T15:17:52.967Z,840
2017-03-01T15:19:01.789Z,856
2017-03-01T15:20:11.415Z,868
2017-03-01T15:21:20.640Z,820
2017-03-01T15:22:29.470Z,816
2017-03-01T15:23:38.873Z,824
2017-03-01T15:24:47.691Z,820
2017-03-01T15:25:57.226Z,812
2017-03-01T15:27:05.991Z,832
2017-03-01T15:28:15.546Z,724
2017-03-01T15:29:25.154Z,728
2017-03-01T15:30:35.126Z,732
2017-03-01T15:31:44.736Z,756
2017-03-01T15:32:54.326Z,748
2017-03-01T15:34:03.148Z,740
2017-03-01T15:35:12.351Z,740
2017-03-01T15:36:21.898Z,680
2017-03-01T15:37:31.085Z,656
2017-03-01T15:38:39.912Z,632
2017-03-01T15:39:50.283Z,588
2017-03-01T15:40:59.871Z,628
2017-03-01T15:42:09.079Z,660
2017-03-01T15:43:18.296Z,624
2017-03-01T15:44:28.297Z,596
2017-03-01T15:45:37.894Z,552
2017-03-01T15:46:47.098Z,500
2017-03-01T15:47:56.329Z,444
2017-03-01T15:49:05.873Z,396
2017-03-01T15:50:15.461Z,416
2017-03-01T15:51:25.083Z,364
2017-03-01T15:52:35.068Z,316
2017-03-01T15:53:45.013Z,260
2017-03-01T15:54:54.598Z,172
2017-03-01T15:56:03.813Z,144
2017-03-01T15:57:13.783Z,180
2017-03-01T15:58:22.991Z,252
2017-03-01T15:59:32.985Z,200
2017-03-01T16:00:42.200Z,220
2017-03-01T16:01:51.443Z,272
2017-03-01T16:03:00.666Z,248
2017-03-01T16:04:09.886Z,180
2017-03-01T16:05:19.088Z,168
2017-03-01T16:06:29.039Z,164
2017-03-01T16:07:37.831Z,160
2017-03-01T16:08:47.468Z,164
2017-03-01T16:09:56.281Z,124
2017-03-01T16:11:05.098Z,148
2017-03-01T16:12:14.325Z,100
2017-03-01T16:13:23.531Z,116
2017-03-01T16:14:32.763Z,112
2017-03-01T16:15:42.377Z,124
2017-03-01T16:16:52.359Z,128
2017-03-01T16:18:02.698Z,96
2017-03-01T16:19:11.987Z,68
2017-03-01T16:20:21.536Z,80
2017-03-01T16:21:31.463Z,80
2017-03-01T16:22:41.439Z,88
2017-03-01T16:23:51.420Z,96
2017-03-01T16:25:01.427Z,84
2017-03-01T16:26:11.013Z,100